createdAt,value
2023-01-29T00:02:11.044Z,4.40
2023-01-29T00:04:39.231Z,4.42
2023-01-29T00:07:07.207Z,4.54
2023-01-29T00:09:35.165Z,4.61
2023-01-29T00:12:03.345Z,4.50
2023-01-29T00:14:31.523Z,4.40
2023-01-29T00:16:59.563Z,4.35
2023-01-29T00:19:28.978Z,4.43
2023-01-29T00:21:57.204Z,4.48
2023-01-29T00:24:25.433Z,4.57
2023-01-29T00:26:53.453Z,4.57
2023-01-29T00:29:22.060Z,4.57
2023-01-29T00:31:50.215Z,4.58
2023-01-29T00:34:18.431Z,4.59
2023-01-29T00:36:47.882Z,4.54
2023-01-29T00:39:15.847Z,4.54
2023-01-29T00:42:01.019Z,4.57
2023-01-29T00:44:46.817Z,4.57
2023-01-29T00:47:34.163Z,4.51
2023-01-29T00:50:02.983Z,4.44
2023-01-29T00:52:32.597Z,4.43
2023-01-29T00:55:01.921Z,4.32
2023-01-29T00:57:31.673Z,4.36
2023-01-29T01:00:00.245Z,4.34
2023-01-29T01:02:45.696Z,4.36
2023-01-29T01:05:18.312Z,4.43
2023-01-29T01:07:48.686Z,4.51
2023-01-29T01:10:23.294Z,4.54
2023-01-29T01:12:56.535Z,4.57
2023-01-29T01:15:25.976Z,4.47
2023-01-29T01:17:55.734Z,4.43
2023-01-29T01:20:24.351Z,4.45
2023-01-29T01:22:55.216Z,4.50
2023-01-29T01:25:24.291Z,4.49
2023-01-29T01:27:54.053Z,4.38
2023-01-29T01:30:22.925Z,4.38
2023-01-29T01:32:50.920Z,4.42
2023-01-29T01:35:19.335Z,4.38
2023-01-29T01:37:47.383Z,4.21
2023-01-29T01:40:19.646Z,4.21
2023-01-29T01:42:50.352Z,4.26
2023-01-29T01:45:25.933Z,4.27
2023-01-29T01:47:57.448Z,4.31
2023-01-29T01:50:30.806Z,4.30
2023-01-29T01:53:04.631Z,4.29
2023-01-29T01:55:37.060Z,4.31
2023-01-29T01:58:10.086Z,4.32
2023-01-29T02:00:38.280Z,4.34
2023-01-29T02:03:25.740Z,4.34
2023-01-29T02:06:14.489Z,4.33
2023-01-29T02:09:06.711Z,4.35
2023-01-29T02:11:36.634Z,4.32
2023-01-29T02:14:04.844Z,4.24
2023-01-29T02:16:35.628Z,4.32
2023-01-29T02:19:05.025Z,4.38
2023-01-29T02:21:59.441Z,4.43
2023-01-29T02:25:09.837Z,4.36
2023-01-29T02:28:13.176Z,4.39
2023-01-29T02:30:46.994Z,4.46
2023-01-29T02:33:23.634Z,4.40
2023-01-29T02:35:58.977Z,4.33
2023-01-29T02:38:33.032Z,4.36
2023-01-29T02:41:06.292Z,4.34
2023-01-29T02:43:46.841Z,4.40
2023-01-29T02:46:23.776Z,4.38
2023-01-29T02:48:56.979Z,4.33
2023-01-29T02:51:31.869Z,4.40
2023-01-29T02:54:04.275Z,4.40
2023-01-29T02:56:39.222Z,4.43
2023-01-29T02:59:14.019Z,4.48
2023-01-29T03:01:47.278Z,4.50
2023-01-29T03:04:21.113Z,4.43
2023-01-29T03:06:54.678Z,4.46
2023-01-29T03:09:27.943Z,4.40
2023-01-29T03:12:01.225Z,4.41
2023-01-29T03:15:01.469Z,4.42
2023-01-29T03:17:37.101Z,4.43
2023-01-29T03:20:10.557Z,4.34
2023-01-29T03:22:40.617Z,4.40
2023-01-29T03:25:29.285Z,4.31
2023-01-29T03:28:18.385Z,4.21
2023-01-29T03:31:09.273Z,4.13
2023-01-29T03:33:43.632Z,4.20
2023-01-29T03:36:16.681Z,4.24
2023-01-29T03:38:45.410Z,4.19
2023-01-29T03:41:24.492Z,4.27
2023-01-29T03:44:00.998Z,4.30
2023-01-29T03:46:34.367Z,4.30
2023-01-29T03:49:08.506Z,4.33
2023-01-29T03:51:42.761Z,4.21
2023-01-29T03:54:19.572Z,4.17
2023-01-29T03:56:58.958Z,4.28
2023-01-29T03:59:38.132Z,4.32
2023-01-29T04:02:12.060Z,4.08
2023-01-29T04:04:44.885Z,4.11
2023-01-29T04:07:15.917Z,4.02
2023-01-29T04:09:48.998Z,4.10
2023-01-29T04:12:24.001Z,4.20
2023-01-29T04:14:53.520Z,4.27
2023-01-29T04:17:30.044Z,4.31
2023-01-29T04:19:58.143Z,4.37
2023-01-29T04:22:31.596Z,4.34
2023-01-29T04:25:02.884Z,4.16
2023-01-29T04:27:42.770Z,4.23
2023-01-29T04:30:35.179Z,4.26
2023-01-29T04:33:18.624Z,4.24
2023-01-29T04:36:06.175Z,4.26
2023-01-29T04:38:48.614Z,4.11
2023-01-29T04:41:23.138Z,4.01
2023-01-29T04:44:00.813Z,4.16
2023-01-29T04:46:36.769Z,4.19
2023-01-29T04:49:19.046Z,4.27
2023-01-29T04:51:52.784Z,4.29
2023-01-29T04:54:33.980Z,4.12
2023-01-29T04:57:10.733Z,4.08
2023-01-29T04:59:45.141Z,4.01
2023-01-29T05:02:14.464Z,3.98
2023-01-29T05:04:47.009Z,4.03
2023-01-29T05:07:16.461Z,3.98
2023-01-29T05:09:47.197Z,4.00
2023-01-29T05:12:18.794Z,4.00
2023-01-29T05:14:48.754Z,3.95
2023-01-29T05:17:19.883Z,4.02
2023-01-29T05:19:50.069Z,4.11
2023-01-29T05:22:22.715Z,4.11
2023-01-29T05:24:51.257Z,4.07
2023-01-29T05:27:41.315Z,4.13
2023-01-29T05:30:11.571Z,4.08
2023-01-29T05:32:39.814Z,4.11
2023-01-29T05:35:09.663Z,4.01
2023-01-29T05:37:37.632Z,4.11
2023-01-29T05:40:08.854Z,4.18
2023-01-29T05:42:36.895Z,4.20
2023-01-29T05:45:05.394Z,4.24
2023-01-29T05:47:33.413Z,4.26
2023-01-29T05:50:01.404Z,4.32
2023-01-29T05:52:30.745Z,4.18
2023-01-29T05:54:59.164Z,4.14
2023-01-29T05:57:27.151Z,4.16
2023-01-29T05:59:55.149Z,4.11
2023-01-29T06:02:23.501Z,4.16
2023-01-29T06:04:52.766Z,4.14
2023-01-29T06:07:20.759Z,4.14
2023-01-29T06:09:50.154Z,4.11
2023-01-29T06:12:18.378Z,4.11
2023-01-29T06:14:46.686Z,4.11
2023-01-29T06:17:14.721Z,3.96
2023-01-29T06:19:42.949Z,4.02
2023-01-29T06:22:10.999Z,3.95
2023-01-29T06:24:38.958Z,3.87
2023-01-29T06:27:08.296Z,3.78
2023-01-29T06:29:36.634Z,3.88
2023-01-29T06:32:05.212Z,3.99
2023-01-29T06:34:33.315Z,4.00
2023-01-29T06:37:01.319Z,4.03
2023-01-29T06:39:29.268Z,3.98
2023-01-29T06:41:57.398Z,4.09
2023-01-29T06:44:27.182Z,4.09
2023-01-29T06:46:55.265Z,4.04
2023-01-29T06:49:23.323Z,4.09
2023-01-29T06:51:51.311Z,4.18
2023-01-29T06:54:19.299Z,4.20
2023-01-29T06:56:47.308Z,4.28
2023-01-29T06:59:15.488Z,4.28
2023-01-29T07:01:44.985Z,4.30
2023-01-29T07:04:13.178Z,4.27
2023-01-29T07:06:41.377Z,4.30
2023-01-29T07:09:09.411Z,4.26
2023-01-29T07:11:38.071Z,4.22
2023-01-29T07:14:06.179Z,4.28
2023-01-29T07:16:34.492Z,4.34
2023-01-29T07:19:04.071Z,4.34
2023-01-29T07:21:32.191Z,4.28
2023-01-29T07:24:00.392Z,4.29
2023-01-29T07:26:28.546Z,4.27
2023-01-29T07:28:56.551Z,4.26
2023-01-29T07:31:24.852Z,4.25
2023-01-29T07:33:52.928Z,4.29
2023-01-29T07:36:22.343Z,4.29
2023-01-29T07:38:51.522Z,4.26
2023-01-29T07:41:19.955Z,4.18
2023-01-29T07:43:48.206Z,4.27
2023-01-29T07:46:16.227Z,4.35
2023-01-29T07:48:44.250Z,4.27
2023-01-29T07:51:12.258Z,4.19
2023-01-29T07:53:42.030Z,4.25
2023-01-29T07:56:09.988Z,4.19
2023-01-29T07:58:38.095Z,4.14
2023-01-29T08:01:08.553Z,4.26
2023-01-29T08:03:37.123Z,4.31
2023-01-29T08:06:05.799Z,4.32
2023-01-29T08:08:34.033Z,4.33
2023-01-29T08:11:05.718Z,4.40
2023-01-29T08:13:34.602Z,4.48
2023-01-29T08:16:03.340Z,4.52
2023-01-29T08:18:32.399Z,4.38
2023-01-29T08:21:01.707Z,4.40
2023-01-29T08:23:29.681Z,4.54
2023-01-29T08:25:57.865Z,4.63
2023-01-29T08:28:27.495Z,4.66
2023-01-29T08:30:55.532Z,4.63
2023-01-29T08:33:38.090Z,4.68
2023-01-29T08:36:08.335Z,4.74
2023-01-29T08:38:36.739Z,4.76
2023-01-29T08:41:05.327Z,4.88
2023-01-29T08:43:35.397Z,4.96
2023-01-29T08:46:05.236Z,4.98
2023-01-29T08:48:33.590Z,5.05
2023-01-29T08:51:02.706Z,4.97
2023-01-29T08:53:30.676Z,5.06
2023-01-29T08:55:59.032Z,5.04
2023-01-29T08:58:27.056Z,4.97
2023-01-29T09:00:56.472Z,5.09
2023-01-29T09:03:24.506Z,5.08
2023-01-29T09:05:52.820Z,4.99
2023-01-29T09:08:20.800Z,5.10
2023-01-29T09:10:48.913Z,5.14
2023-01-29T09:13:16.915Z,5.06
2023-01-29T09:15:44.891Z,5.06
2023-01-29T09:18:14.396Z,5.00
2023-01-29T09:20:42.372Z,5.12
2023-01-29T09:23:12.093Z,5.21
2023-01-29T09:25:40.153Z,5.34
2023-01-29T09:28:08.226Z,5.48
2023-01-29T09:30:38.219Z,5.32
2023-01-29T09:33:07.271Z,5.46
2023-01-29T09:35:36.846Z,5.50
2023-01-29T09:38:04.834Z,5.58
2023-01-29T09:40:39.364Z,5.60
2023-01-29T09:43:14.511Z,5.50
2023-01-29T09:45:51.703Z,5.65
2023-01-29T09:48:21.578Z,5.70
2023-01-29T09:50:55.231Z,5.68
2023-01-29T09:53:29.521Z,5.71
2023-01-29T09:56:02.291Z,5.56
2023-01-29T09:58:34.506Z,5.60
2023-01-29T10:01:13.753Z,5.57
2023-01-29T10:04:07.936Z,5.65
2023-01-29T10:06:52.618Z,5.65
2023-01-29T10:09:44.387Z,5.75
2023-01-29T10:12:28.201Z,5.80
2023-01-29T10:15:06.935Z,5.58
2023-01-29T10:17:55.756Z,5.87
2023-01-29T10:20:44.190Z,6.02
2023-01-29T10:23:22.655Z,6.08
2023-01-29T10:25:51.195Z,6.09
2023-01-29T10:28:22.185Z,6.10
2023-01-29T10:30:52.249Z,6.21
2023-01-29T10:33:26.651Z,6.06
2023-01-29T10:35:59.376Z,5.98
2023-01-29T10:38:41.265Z,5.97
2023-01-29T10:41:38.032Z,6.09
2023-01-29T10:44:25.431Z,6.14
2023-01-29T10:47:08.900Z,6.14
2023-01-29T10:49:50.857Z,6.28
2023-01-29T10:52:34.395Z,6.35
2023-01-29T10:55:17.071Z,6.33
2023-01-29T10:58:02.940Z,6.33
2023-01-29T11:00:36.460Z,6.44
2023-01-29T11:03:26.949Z,6.48
2023-01-29T11:06:04.038Z,6.89
2023-01-29T11:08:38.668Z,7.28
2023-01-29T11:11:13.456Z,7.39
2023-01-29T11:13:46.691Z,7.34
2023-01-29T11:16:14.908Z,7.23
2023-01-29T11:18:55.990Z,7.14
2023-01-29T11:21:24.943Z,6.87
2023-01-29T11:24:07.441Z,6.87
2023-01-29T11:26:41.441Z,6.75
2023-01-29T11:29:32.856Z,6.79
2023-01-29T11:32:02.702Z,6.61
2023-01-29T11:34:32.368Z,6.58
2023-01-29T11:37:01.817Z,6.53
2023-01-29T11:39:33.213Z,6.59
2023-01-29T11:42:04.507Z,6.70
2023-01-29T11:44:34.898Z,6.63
2023-01-29T11:47:13.846Z,6.72
2023-01-29T11:49:46.771Z,6.85
2023-01-29T11:52:18.372Z,6.97
2023-01-29T11:54:51.549Z,7.00
2023-01-29T11:57:34.234Z,6.73
2023-01-29T12:00:06.610Z,6.87
2023-01-29T12:02:38.497Z,6.63
2023-01-29T12:05:15.593Z,6.79
2023-01-29T12:07:45.531Z,6.99
2023-01-29T12:10:33.635Z,7.15
2023-01-29T12:13:26.702Z,7.25
2023-01-29T12:16:14.425Z,7.29
2023-01-29T12:18:45.707Z,7.30
2023-01-29T12:21:19.797Z,7.40
2023-01-29T12:23:54.826Z,7.31
2023-01-29T12:26:31.111Z,7.32
2023-01-29T12:29:25.344Z,7.10
2023-01-29T12:32:02.692Z,7.13
2023-01-29T12:34:39.249Z,7.02
2023-01-29T12:37:18.026Z,7.12
2023-01-29T12:39:46.217Z,7.13
2023-01-29T12:42:18.942Z,7.15
2023-01-29T12:44:53.150Z,7.24
2023-01-29T12:47:24.771Z,7.23
2023-01-29T12:49:57.013Z,7.26
2023-01-29T12:52:38.335Z,7.18
2023-01-29T12:55:17.437Z,6.96
2023-01-29T12:57:52.056Z,7.05
2023-01-29T13:00:24.211Z,7.09
2023-01-29T13:02:59.996Z,7.26
2023-01-29T13:05:32.083Z,7.24
2023-01-29T13:08:06.448Z,7.21
2023-01-29T13:10:39.944Z,7.05
2023-01-29T13:13:16.867Z,6.91
2023-01-29T13:15:48.229Z,6.96
2023-01-29T13:18:37.820Z,6.98
2023-01-29T13:21:06.678Z,6.97
2023-01-29T13:23:39.085Z,6.75
2023-01-29T13:26:07.819Z,6.68
2023-01-29T13:28:36.095Z,6.74
2023-01-29T13:31:28.487Z,6.62
2023-01-29T13:34:03.896Z,6.71
2023-01-29T13:36:32.902Z,6.59
2023-01-29T13:39:06.919Z,6.61
2023-01-29T13:41:41.642Z,6.71
2023-01-29T13:44:21.483Z,6.56
2023-01-29T13:46:56.733Z,6.41
2023-01-29T13:49:38.748Z,6.44
2023-01-29T13:52:22.447Z,6.45
2023-01-29T13:54:58.091Z,6.52
2023-01-29T13:57:51.117Z,6.36
2023-01-29T14:00:56.491Z,6.22
2023-01-29T14:04:05.934Z,6.13
2023-01-29T14:06:49.568Z,6.25
2023-01-29T14:09:36.095Z,6.33
2023-01-29T14:12:04.984Z,6.09
2023-01-29T14:15:00.283Z,6.25
2023-01-29T14:17:29.853Z,6.20
2023-01-29T14:20:04.425Z,6.30
2023-01-29T14:22:34.583Z,6.25
2023-01-29T14:25:06.223Z,6.22
2023-01-29T14:27:36.909Z,6.17
2023-01-29T14:30:10.983Z,6.18
2023-01-29T14:32:41.702Z,6.03
2023-01-29T14:35:22.102Z,6.14
2023-01-29T14:37:53.692Z,6.13
2023-01-29T14:40:25.375Z,6.14
2023-01-29T14:43:01.261Z,6.18
2023-01-29T14:45:30.830Z,6.27
2023-01-29T14:48:15.087Z,6.28
2023-01-29T14:50:59.255Z,6.20
2023-01-29T14:53:41.928Z,6.10
2023-01-29T14:56:16.546Z,5.99
2023-01-29T14:58:48.112Z,6.09
2023-01-29T15:01:22.280Z,6.22
2023-01-29T15:03:53.479Z,6.11
2023-01-29T15:06:30.180Z,6.19
2023-01-29T15:09:08.433Z,6.33
2023-01-29T15:11:48.398Z,6.37
2023-01-29T15:14:25.052Z,6.51
2023-01-29T15:17:11.294Z,6.52
2023-01-29T15:19:44.885Z,6.47
2023-01-29T15:22:15.978Z,6.55
2023-01-29T15:24:45.268Z,6.61
2023-01-29T15:27:17.024Z,6.56
2023-01-29T15:29:49.692Z,6.61
2023-01-29T15:32:32.424Z,6.61
2023-01-29T15:35:02.023Z,6.61
2023-01-29T15:37:34.012Z,6.56
2023-01-29T15:40:03.119Z,6.59
2023-01-29T15:42:44.746Z,6.57
2023-01-29T15:45:23.681Z,6.49
2023-01-29T15:47:52.818Z,6.53
2023-01-29T15:50:22.208Z,6.53
2023-01-29T15:52:54.782Z,6.43
2023-01-29T15:55:24.840Z,6.35
2023-01-29T15:57:53.326Z,6.32
2023-01-29T16:00:24.815Z,6.34
2023-01-29T16:02:52.976Z,6.36
2023-01-29T16:05:23.938Z,6.38
2023-01-29T16:07:55.632Z,6.40
2023-01-29T16:10:26.018Z,6.44
2023-01-29T16:12:54.627Z,6.42
2023-01-29T16:15:32.422Z,6.42
2023-01-29T16:18:01.832Z,6.41
2023-01-29T16:20:37.711Z,6.33
2023-01-29T16:23:08.610Z,6.17
2023-01-29T16:25:40.114Z,6.13
2023-01-29T16:28:11.053Z,6.11
2023-01-29T16:30:40.244Z,6.20
2023-01-29T16:33:13.145Z,6.07
2023-01-29T16:35:41.835Z,5.89
2023-01-29T16:38:28.018Z,5.76
2023-01-29T16:41:20.163Z,5.78
2023-01-29T16:43:53.485Z,5.83
2023-01-29T16:46:27.503Z,5.84
2023-01-29T16:48:55.998Z,5.82
2023-01-29T16:51:27.865Z,5.73
2023-01-29T16:54:03.069Z,5.67
2023-01-29T16:56:34.145Z,5.59
2023-01-29T16:59:04.921Z,5.60
2023-01-29T17:01:35.712Z,5.58
2023-01-29T17:04:09.186Z,5.62
2023-01-29T17:06:37.717Z,5.63
2023-01-29T17:09:08.359Z,5.57
2023-01-29T17:11:41.777Z,5.54
2023-01-29T17:14:11.395Z,5.49
2023-01-29T17:16:51.305Z,5.50
2023-01-29T17:19:21.701Z,5.55
2023-01-29T17:21:49.941Z,5.50
2023-01-29T17:24:19.350Z,5.57
2023-01-29T17:26:47.755Z,5.60
2023-01-29T17:29:19.075Z,5.62
2023-01-29T17:31:48.454Z,5.39
2023-01-29T17:34:18.667Z,5.19
2023-01-29T17:36:47.234Z,4.80
2023-01-29T17:39:20.211Z,4.82
2023-01-29T17:41:51.701Z,5.04
2023-01-29T17:44:19.826Z,5.21
2023-01-29T17:46:48.563Z,5.26
2023-01-29T17:49:24.283Z,5.31
2023-01-29T17:51:52.943Z,5.52
2023-01-29T17:54:25.741Z,5.57
2023-01-29T17:56:54.924Z,5.59
2023-01-29T17:59:24.789Z,5.63
2023-01-29T18:01:53.384Z,5.64
2023-01-29T18:04:21.514Z,5.65
2023-01-29T18:06:51.569Z,5.78
2023-01-29T18:09:22.161Z,5.80
2023-01-29T18:11:53.448Z,5.74
2023-01-29T18:14:22.143Z,5.81
2023-01-29T18:16:50.279Z,5.81
2023-01-29T18:19:22.343Z,5.81
2023-01-29T18:21:50.698Z,5.80
2023-01-29T18:24:20.498Z,5.80
2023-01-29T18:26:48.795Z,5.78
2023-01-29T18:29:18.277Z,5.77
2023-01-29T18:31:49.456Z,5.77
2023-01-29T18:34:17.490Z,5.74
2023-01-29T18:36:47.782Z,5.77
2023-01-29T18:39:16.429Z,5.80
2023-01-29T18:41:44.791Z,5.84
2023-01-29T18:44:13.095Z,5.78
2023-01-29T18:46:42.821Z,5.87
2023-01-29T18:49:11.823Z,5.84
2023-01-29T18:51:39.914Z,5.74
2023-01-29T18:54:07.959Z,5.78
2023-01-29T18:56:35.994Z,5.76
2023-01-29T18:59:05.701Z,5.79
2023-01-29T19:01:34.757Z,5.78
2023-01-29T19:04:04.372Z,5.75
2023-01-29T19:06:37.033Z,5.78
2023-01-29T19:09:05.438Z,5.77
2023-01-29T19:11:33.432Z,5.75
2023-01-29T19:14:01.489Z,5.73
2023-01-29T19:16:29.559Z,5.73
2023-01-29T19:18:58.665Z,5.76
2023-01-29T19:21:28.572Z,5.59
2023-01-29T19:23:57.165Z,5.58
2023-01-29T19:26:25.383Z,5.61
2023-01-29T19:28:53.451Z,5.64
2023-01-29T19:31:21.679Z,5.68
2023-01-29T19:33:49.844Z,5.71
2023-01-29T19:36:17.846Z,5.74
2023-01-29T19:38:49.224Z,5.71
2023-01-29T19:41:17.421Z,5.61
2023-01-29T19:43:46.426Z,5.59
2023-01-29T19:46:14.742Z,5.64
2023-01-29T19:48:42.904Z,5.52
2023-01-29T19:51:12.295Z,5.64
2023-01-29T19:53:43.898Z,5.66
2023-01-29T19:56:15.428Z,5.66
2023-01-29T19:58:43.853Z,5.66
2023-01-29T20:01:16.034Z,5.56
2023-01-29T20:03:46.475Z,5.51
2023-01-29T20:06:16.793Z,5.57
2023-01-29T20:08:46.574Z,5.59
2023-01-29T20:11:17.307Z,5.56
2023-01-29T20:13:48.514Z,5.59
2023-01-29T20:16:17.400Z,5.57
2023-01-29T20:18:46.353Z,5.61
2023-01-29T20:21:17.214Z,5.63
2023-01-29T20:23:46.121Z,5.59
2023-01-29T20:26:17.151Z,5.54
2023-01-29T20:28:47.452Z,5.55
2023-01-29T20:31:16.066Z,5.50
2023-01-29T20:33:44.367Z,5.48
2023-01-29T20:36:14.874Z,5.41
2023-01-29T20:38:43.076Z,5.51
2023-01-29T20:41:16.230Z,5.55
2023-01-29T20:43:44.779Z,5.50
2023-01-29T20:46:13.207Z,5.54
2023-01-29T20:48:42.132Z,5.58
2023-01-29T20:51:15.320Z,5.59
2023-01-29T20:53:45.484Z,5.61
2023-01-29T20:56:17.353Z,5.56
2023-01-29T20:58:46.720Z,5.55
2023-01-29T21:01:17.060Z,5.55
2023-01-29T21:03:46.368Z,5.55
2023-01-29T21:06:15.860Z,5.54
2023-01-29T21:08:43.968Z,5.53
2023-01-29T21:11:12.375Z,5.60
2023-01-29T21:13:42.686Z,5.59
2023-01-29T21:16:11.835Z,5.57
2023-01-29T21:18:40.143Z,5.59
2023-01-29T21:21:08.118Z,5.59
2023-01-29T21:23:36.148Z,5.58
2023-01-29T21:26:04.738Z,5.61
2023-01-29T21:28:33.391Z,5.51
2023-01-29T21:31:07.130Z,5.60
2023-01-29T21:33:35.626Z,5.60
2023-01-29T21:36:04.079Z,5.62
2023-01-29T21:38:32.410Z,5.58
2023-01-29T21:41:01.257Z,5.57
2023-01-29T21:43:28.663Z,5.53
2023-01-29T21:45:57.745Z,5.54
2023-01-29T21:48:27.985Z,5.51
2023-01-29T21:50:56.299Z,5.51
2023-01-29T21:53:24.307Z,5.51
2023-01-29T21:55:52.332Z,5.42
2023-01-29T21:58:21.068Z,5.35
2023-01-29T22:00:49.736Z,5.40
2023-01-29T22:03:17.821Z,5.39
2023-01-29T22:05:47.177Z,5.34
2023-01-29T22:08:15.163Z,5.41
2023-01-29T22:10:43.257Z,5.46
2023-01-29T22:13:11.657Z,5.50
2023-01-29T22:15:39.647Z,5.51
2023-01-29T22:18:07.653Z,5.52
2023-01-29T22:20:36.754Z,5.53
2023-01-29T22:23:06.149Z,5.52
2023-01-29T22:25:34.619Z,5.52
2023-01-29T22:28:02.641Z,5.49
2023-01-29T22:30:30.763Z,5.50
2023-01-29T22:32:58.799Z,5.56
2023-01-29T22:35:26.878Z,5.56
2023-01-29T22:37:55.110Z,5.51
2023-01-29T22:40:24.583Z,5.40
2023-01-29T22:42:52.550Z,5.37
2023-01-29T22:45:20.683Z,5.42
2023-01-29T22:47:48.873Z,5.45
2023-01-29T22:50:17.382Z,5.50
2023-01-29T22:52:53.554Z,5.37
2023-01-29T22:55:21.959Z,5.38
2023-01-29T22:57:51.474Z,5.40
2023-01-29T23:00:20.689Z,5.40
2023-01-29T23:02:49.171Z,5.13
2023-01-29T23:05:17.672Z,4.98
2023-01-29T23:07:45.891Z,5.05
2023-01-29T23:10:15.337Z,5.17
2023-01-29T23:12:43.429Z,5.09
2023-01-29T23:15:12.914Z,4.91
2023-01-29T23:17:40.969Z,4.81
2023-01-29T23:20:10.241Z,4.98
2023-01-29T23:22:38.626Z,4.80
2023-01-29T23:25:07.669Z,4.64
2023-01-29T23:27:34.679Z,4.84
2023-01-29T23:30:02.889Z,4.78
2023-01-29T23:32:32.785Z,4.60
2023-01-29T23:35:01.026Z,4.58
2023-01-29T23:37:29.297Z,4.63
2023-01-29T23:39:57.401Z,4.75
2023-01-29T23:42:25.576Z,4.77
2023-01-29T23:44:53.577Z,4.75
2023-01-29T23:47:21.852Z,4.54
2023-01-29T23:49:52.866Z,4.43
2023-01-29T23:52:21.047Z,4.44
2023-01-29T23:54:49.384Z,4.21
2023-01-29T23:57:17.351Z,4.19
2023-01-29T23:59:45.371Z,4.03
